createdAt,value
2023-01-11T00:00:42.162Z,8.27
2023-01-11T00:03:08.843Z,9.35
2023-01-11T00:05:42.505Z,8.40
2023-01-11T00:08:09.874Z,8.25
2023-01-11T00:10:36.814Z,8.55
2023-01-11T00:13:03.809Z,8.77
2023-01-11T00:15:30.603Z,8.98
2023-01-11T00:17:57.808Z,8.70
2023-01-11T00:20:25.209Z,7.70
2023-01-11T00:22:51.940Z,7.45
2023-01-11T00:25:18.661Z,8.48
2023-01-11T00:27:47.306Z,7.68
2023-01-11T00:30:14.124Z,7.60
2023-01-11T00:32:41.025Z,8.48
2023-01-11T00:35:08.680Z,6.90
2023-01-11T00:37:35.577Z,7.60
2023-01-11T00:40:02.283Z,7.97
2023-01-11T00:42:47.440Z,7.00
2023-01-11T00:45:32.604Z,7.05
2023-01-11T00:48:04.919Z,7.07
2023-01-11T00:50:36.898Z,7.05
2023-01-11T00:53:04.238Z,6.53
2023-01-11T00:55:32.083Z,8.80
2023-01-11T00:57:59.167Z,6.70
2023-01-11T01:00:26.464Z,5.88
2023-01-11T01:02:53.523Z,6.40
2023-01-11T01:05:20.781Z,6.53
2023-01-11T01:07:47.457Z,7.28
2023-01-11T01:10:15.495Z,6.63
2023-01-11T01:13:00.836Z,7.50
2023-01-11T01:15:27.566Z,6.30
2023-01-11T01:17:55.301Z,6.45
2023-01-11T01:20:23.323Z,7.18
2023-01-11T01:22:50.449Z,6.78
2023-01-11T01:25:17.324Z,7.53
2023-01-11T01:27:43.977Z,7.88
2023-01-11T01:30:11.215Z,7.13
2023-01-11T01:32:38.085Z,7.72
2023-01-11T01:35:05.146Z,7.07
2023-01-11T01:37:31.882Z,7.22
2023-01-11T01:39:59.606Z,7.97
2023-01-11T01:42:26.593Z,6.85
2023-01-11T01:45:07.012Z,7.78
2023-01-11T01:47:51.447Z,7.43
2023-01-11T01:50:22.566Z,6.68
2023-01-11T01:52:52.384Z,7.22
2023-01-11T01:55:34.104Z,8.65
2023-01-11T01:58:03.012Z,8.27
2023-01-11T02:00:30.356Z,7.78
2023-01-11T02:02:59.500Z,7.88
2023-01-11T02:05:26.792Z,8.00
2023-01-11T02:07:56.270Z,7.72
2023-01-11T02:10:23.292Z,8.38
2023-01-11T02:12:58.883Z,7.95
2023-01-11T02:15:25.956Z,9.80
2023-01-11T02:17:52.713Z,9.35
2023-01-11T02:20:57.482Z,8.45
2023-01-11T02:23:53.472Z,8.52
2023-01-11T02:26:26.026Z,10.02
2023-01-11T02:29:07.533Z,8.43
2023-01-11T02:31:57.546Z,10.25
2023-01-11T02:34:41.920Z,9.30
2023-01-11T02:37:36.675Z,8.25
2023-01-11T02:40:18.600Z,8.65
2023-01-11T02:43:13.416Z,9.30
2023-01-11T02:45:47.280Z,8.73
2023-01-11T02:48:41.561Z,9.05
2023-01-11T02:51:13.236Z,8.20
2023-01-11T02:53:42.852Z,9.85
2023-01-11T02:56:12.583Z,8.35
2023-01-11T02:58:41.672Z,7.85
2023-01-11T03:01:10.105Z,8.85
2023-01-11T03:03:36.781Z,8.50
2023-01-11T03:06:06.449Z,9.52
2023-01-11T03:08:53.326Z,8.48
2023-01-11T03:11:57.782Z,10.35
2023-01-11T03:14:36.363Z,8.88
2023-01-11T03:17:09.147Z,8.90
2023-01-11T03:19:51.400Z,9.00
2023-01-11T03:22:24.960Z,7.72
2023-01-11T03:25:06.900Z,7.90
2023-01-11T03:27:47.649Z,8.43
2023-01-11T03:30:37.880Z,7.70
2023-01-11T03:33:13.681Z,8.30
2023-01-11T03:35:49.031Z,9.20
2023-01-11T03:38:27.718Z,8.50
2023-01-11T03:41:07.073Z,8.65
2023-01-11T03:43:36.724Z,8.70
2023-01-11T03:46:15.738Z,9.43
2023-01-11T03:48:48.540Z,9.02
2023-01-11T03:51:18.106Z,8.40
2023-01-11T03:53:47.062Z,8.95
2023-01-11T03:56:16.907Z,9.00
2023-01-11T03:58:44.206Z,8.45
2023-01-11T04:01:11.512Z,7.57
2023-01-11T04:03:38.332Z,9.05
2023-01-11T04:06:05.351Z,8.27
2023-01-11T04:08:32.091Z,8.43
2023-01-11T04:10:58.759Z,7.65
2023-01-11T04:13:25.544Z,8.13
2023-01-11T04:15:54.072Z,9.13
2023-01-11T04:18:22.312Z,9.18
2023-01-11T04:20:48.961Z,8.10
2023-01-11T04:23:15.655Z,7.95
2023-01-11T04:25:42.325Z,11.02
2023-01-11T04:28:09.128Z,6.05
2023-01-11T04:30:36.158Z,7.28
2023-01-11T04:33:04.203Z,6.63
2023-01-11T04:35:30.888Z,8.52
2023-01-11T04:37:58.019Z,8.00
2023-01-11T04:40:25.504Z,6.57
2023-01-11T04:42:53.147Z,6.72
2023-01-11T04:45:19.845Z,8.95
2023-01-11T04:47:46.510Z,7.68
2023-01-11T04:50:13.341Z,6.35
2023-01-11T04:52:41.730Z,6.85
2023-01-11T04:55:09.399Z,6.22
2023-01-11T04:57:36.381Z,6.72
2023-01-11T05:00:06.484Z,6.95
2023-01-11T05:02:33.253Z,7.75
2023-01-11T05:04:59.897Z,6.32
2023-01-11T05:07:28.989Z,6.60
2023-01-11T05:09:55.639Z,6.63
2023-01-11T05:12:22.351Z,7.20
2023-01-11T05:14:49.021Z,5.65
2023-01-11T05:17:16.441Z,9.73
2023-01-11T05:19:43.413Z,7.15
2023-01-11T05:22:10.632Z,7.82
2023-01-11T05:24:37.291Z,9.43
2023-01-11T05:27:04.571Z,7.82
2023-01-11T05:29:31.262Z,8.50
2023-01-11T05:31:57.957Z,7.35
2023-01-11T05:34:24.640Z,6.88
2023-01-11T05:36:51.308Z,5.55
2023-01-11T05:39:18.041Z,6.60
2023-01-11T05:41:47.007Z,7.38
2023-01-11T05:44:32.857Z,7.13
2023-01-11T05:46:59.739Z,4.82
2023-01-11T05:49:26.530Z,7.47
2023-01-11T05:51:53.183Z,7.57
2023-01-11T05:54:19.916Z,7.53
2023-01-11T05:56:46.685Z,6.95
2023-01-11T05:59:13.461Z,6.97
2023-01-11T06:01:40.450Z,5.05
2023-01-11T06:04:08.597Z,5.75
2023-01-11T06:06:35.938Z,6.60
2023-01-11T06:09:05.511Z,7.60
2023-01-11T06:11:32.271Z,6.60
2023-01-11T06:13:58.965Z,8.23
2023-01-11T06:16:25.804Z,10.10
2023-01-11T06:18:53.486Z,9.55
2023-01-11T06:21:20.877Z,10.68
2023-01-11T06:23:50.876Z,11.80
2023-01-11T06:29:04.785Z,10.18
2023-01-11T06:31:31.507Z,11.05
2023-01-11T06:33:58.194Z,17.08
2023-01-11T06:36:24.825Z,15.65
2023-01-11T06:38:52.986Z,12.70
2023-01-11T06:41:19.895Z,10.93
2023-01-11T06:43:47.107Z,9.55
2023-01-11T06:46:16.204Z,10.32
2023-01-11T06:48:43.711Z,9.75
2023-01-11T06:51:12.167Z,9.30
2023-01-11T06:53:39.828Z,9.88
2023-01-11T06:56:06.784Z,10.43
2023-01-11T06:58:34.491Z,8.93
2023-01-11T07:01:01.301Z,8.05
2023-01-11T07:03:28.201Z,8.23
2023-01-11T07:05:57.082Z,8.13
2023-01-11T07:08:27.094Z,8.65
2023-01-11T07:10:54.392Z,7.95
2023-01-11T07:13:21.304Z,7.55
2023-01-11T07:15:50.603Z,7.55
2023-01-11T07:18:19.697Z,6.38
2023-01-11T07:20:46.792Z,6.55
2023-01-11T07:23:13.559Z,6.85
2023-01-11T07:25:41.269Z,6.03
2023-01-11T07:28:08.924Z,9.93
2023-01-11T07:30:55.505Z,12.52
2023-01-11T07:33:24.188Z,8.85
2023-01-11T07:35:50.937Z,8.35
2023-01-11T07:38:17.686Z,8.75
2023-01-11T07:40:44.450Z,10.70
2023-01-11T07:43:16.133Z,9.23
2023-01-11T07:45:46.375Z,10.43
2023-01-11T07:48:14.337Z,8.85
2023-01-11T07:50:44.263Z,8.00
2023-01-11T07:53:12.500Z,11.18
2023-01-11T07:55:40.123Z,8.20
2023-01-11T07:58:08.660Z,12.52
2023-01-11T08:00:35.407Z,8.98
2023-01-11T08:03:02.639Z,8.23
2023-01-11T08:05:29.789Z,9.77
2023-01-11T08:07:56.565Z,9.68
2023-01-11T08:10:23.316Z,8.60
2023-01-11T08:13:08.877Z,9.23
2023-01-11T08:15:42.427Z,8.27
2023-01-11T08:18:10.019Z,8.48
2023-01-11T08:20:36.725Z,8.20
2023-01-11T08:23:05.112Z,8.52
2023-01-11T08:25:32.852Z,8.25
2023-01-11T08:28:03.769Z,11.00
2023-01-11T08:30:30.843Z,7.93
2023-01-11T08:32:57.821Z,7.75
2023-01-11T08:35:25.661Z,9.55
2023-01-11T08:37:52.549Z,13.90
2023-01-11T08:40:20.091Z,9.52
2023-01-11T08:42:47.265Z,9.30
2023-01-11T08:45:13.993Z,9.68
2023-01-11T08:47:40.667Z,10.15
2023-01-11T08:50:08.723Z,11.30
2023-01-11T08:52:35.462Z,10.68
2023-01-11T08:55:02.139Z,11.40
2023-01-11T08:57:28.880Z,11.65
2023-01-11T08:59:55.530Z,12.05
2023-01-11T09:02:22.700Z,12.27
2023-01-11T09:04:49.354Z,15.82
2023-01-11T09:07:16.137Z,13.25
2023-01-11T09:09:42.894Z,12.05
2023-01-11T09:12:09.527Z,11.95
2023-01-11T09:14:36.249Z,15.02
2023-01-11T09:17:03.125Z,15.82
2023-01-11T09:19:33.494Z,13.07
2023-01-11T09:22:02.751Z,13.57
2023-01-11T09:24:30.104Z,13.68
2023-01-11T09:27:00.338Z,14.18
2023-01-11T09:29:27.182Z,13.25
2023-01-11T09:31:53.886Z,13.80
2023-01-11T09:34:21.191Z,11.80
2023-01-11T09:36:49.548Z,12.82
2023-01-11T09:39:18.883Z,14.70
2023-01-11T09:42:00.869Z,14.05
2023-01-11T09:44:29.891Z,13.38
2023-01-11T09:47:28.938Z,14.18
2023-01-11T09:49:58.357Z,11.18
2023-01-11T09:52:38.249Z,13.10
2023-01-11T09:55:05.510Z,13.43
2023-01-11T09:58:02.967Z,11.02
2023-01-11T10:00:39.419Z,13.73
2023-01-11T10:03:17.227Z,10.13
2023-01-11T10:06:36.283Z,13.27
2023-01-11T10:18:27.734Z,11.38
2023-01-11T10:18:45.433Z,10.05
2023-01-11T10:21:17.744Z,9.77
2023-01-11T10:23:58.711Z,10.80
2023-01-11T10:26:28.830Z,9.88
2023-01-11T10:29:22.276Z,10.90
2023-01-11T10:32:25.846Z,9.60
2023-01-11T10:35:12.064Z,9.40
2023-01-11T10:37:58.542Z,11.27
2023-01-11T10:40:31.199Z,11.15
2023-01-11T10:43:21.897Z,9.00
2023-01-11T10:45:57.386Z,11.10
2023-01-11T10:48:42.698Z,10.20
2023-01-11T10:51:27.285Z,8.23
2023-01-11T10:54:14.312Z,10.00
2023-01-11T10:57:01.593Z,7.85
2023-01-11T11:00:05.261Z,8.52
2023-01-11T11:02:34.657Z,6.40
2023-01-11T11:05:25.640Z,7.32
2023-01-11T11:07:59.348Z,10.05
2023-01-11T11:10:34.607Z,8.05
2023-01-11T11:13:18.973Z,7.97
2023-01-11T11:16:11.772Z,8.57
2023-01-11T11:18:39.156Z,9.05
2023-01-11T11:21:21.389Z,9.95
2023-01-11T11:23:56.016Z,8.60
2023-01-11T11:26:26.270Z,12.82
2023-01-11T11:29:02.043Z,12.20
2023-01-11T11:31:29.826Z,10.73
2023-01-11T11:33:56.734Z,9.45
2023-01-11T11:36:24.830Z,9.20
2023-01-11T11:39:26.205Z,8.13
2023-01-11T11:41:58.287Z,9.38
2023-01-11T11:44:27.259Z,10.57
2023-01-11T11:47:04.498Z,9.90
2023-01-11T11:49:32.972Z,9.10
2023-01-11T11:52:01.353Z,9.48
2023-01-11T11:54:36.093Z,10.27
2023-01-11T11:57:37.432Z,10.20
2023-01-11T12:00:28.044Z,8.63
2023-01-11T12:03:17.432Z,11.48
2023-01-11T12:06:10.502Z,9.10
2023-01-11T12:08:43.526Z,8.95
2023-01-11T12:11:20.369Z,8.13
2023-01-11T12:14:00.156Z,8.55
2023-01-11T12:16:32.032Z,7.38
2023-01-11T12:18:58.754Z,9.00
2023-01-11T12:21:27.608Z,10.98
2023-01-11T12:24:17.274Z,9.68
2023-01-11T12:27:21.157Z,7.40
2023-01-11T12:30:10.186Z,7.88
2023-01-11T12:33:07.908Z,7.47
2023-01-11T12:36:05.145Z,8.27
2023-01-11T12:38:40.969Z,8.20
2023-01-11T12:41:44.734Z,8.95
2023-01-11T12:44:33.006Z,6.95
2023-01-11T12:47:33.903Z,8.32
2023-01-11T12:50:15.421Z,9.48
2023-01-11T12:53:08.309Z,7.95
2023-01-11T12:56:10.637Z,8.25
2023-01-11T12:58:45.351Z,8.55
2023-01-11T13:01:37.721Z,8.52
2023-01-11T13:04:40.952Z,8.48
2023-01-11T13:07:48.970Z,9.85
2023-01-11T13:10:18.434Z,8.05
2023-01-11T13:12:47.694Z,8.40
2023-01-11T13:18:14.652Z,7.95
2023-01-11T13:21:00.127Z,7.82
2023-01-11T13:23:42.437Z,7.75
2023-01-11T13:26:31.122Z,7.40
2023-01-11T13:29:07.898Z,7.93
2023-01-11T13:31:35.321Z,6.93
2023-01-11T13:34:06.530Z,7.43
2023-01-11T13:36:48.383Z,10.25
2023-01-11T13:39:21.126Z,9.82
2023-01-11T13:41:52.815Z,8.60
2023-01-11T13:44:30.944Z,8.05
2023-01-11T13:47:16.299Z,8.73
2023-01-11T13:50:21.062Z,7.40
2023-01-11T13:53:13.893Z,8.23
2023-01-11T13:55:40.527Z,8.25
2023-01-11T13:58:30.707Z,7.95
2023-01-11T14:01:20.612Z,8.40
2023-01-11T14:04:02.803Z,8.85
2023-01-11T14:07:05.266Z,7.80
2023-01-11T14:09:47.074Z,7.32
2023-01-11T14:12:38.673Z,7.82
2023-01-11T14:15:27.437Z,6.03
2023-01-11T14:18:09.390Z,7.13
2023-01-11T14:20:56.304Z,7.97
2023-01-11T14:23:44.271Z,7.13
2023-01-11T14:26:35.339Z,6.68
2023-01-11T14:29:16.304Z,7.05
2023-01-11T14:32:05.480Z,7.13
2023-01-11T14:35:04.326Z,7.38
2023-01-11T14:37:49.599Z,7.90
2023-01-11T14:40:36.576Z,8.23
2023-01-11T14:43:18.555Z,6.93
2023-01-11T14:46:10.379Z,8.00
2023-01-11T14:48:57.770Z,6.97
2023-01-11T14:51:44.704Z,7.25
2023-01-11T14:54:21.378Z,6.03
2023-01-11T14:56:51.620Z,6.43
2023-01-11T14:59:34.770Z,6.05
2023-01-11T15:02:04.362Z,6.60
2023-01-11T15:04:52.746Z,6.68
2023-01-11T15:07:23.530Z,6.80
2023-01-11T15:09:55.698Z,5.20
2023-01-11T15:12:24.328Z,5.75
2023-01-11T15:14:56.690Z,5.28
2023-01-11T15:17:44.900Z,7.93
2023-01-11T15:20:14.865Z,8.82
2023-01-11T15:22:41.914Z,6.88
2023-01-11T15:25:29.647Z,8.63
2023-01-11T15:30:32.247Z,6.22
2023-01-11T15:33:17.311Z,6.57
2023-01-11T15:35:55.971Z,6.18
2023-01-11T15:38:40.316Z,8.85
2023-01-11T15:41:32.981Z,8.13
2023-01-11T15:43:59.639Z,6.45
2023-01-11T15:46:53.592Z,6.95
2023-01-11T15:49:51.277Z,6.18
2023-01-11T15:52:20.612Z,7.05
2023-01-11T15:57:58.315Z,8.43
2023-01-11T16:00:44.232Z,7.60
2023-01-11T16:03:19.926Z,7.25
2023-01-11T16:06:28.715Z,5.95
2023-01-11T16:09:33.890Z,6.95
2023-01-11T16:12:25.203Z,9.60
2023-01-11T16:15:10.311Z,6.75
2023-01-11T16:17:40.418Z,7.30
2023-01-11T16:20:34.857Z,7.22
2023-01-11T16:23:03.718Z,8.20
2023-01-11T16:25:33.210Z,8.40
2023-01-11T16:28:00.810Z,6.65
2023-01-11T16:30:28.641Z,6.32
2023-01-11T16:33:21.129Z,6.65
2023-01-11T16:35:48.797Z,6.88
2023-01-11T16:38:18.362Z,6.05
2023-01-11T16:40:49.829Z,7.13
2023-01-11T16:43:28.473Z,10.65
2023-01-11T16:45:55.523Z,8.48
2023-01-11T16:48:29.794Z,7.18
2023-01-11T16:51:03.301Z,7.22
2023-01-11T16:53:32.320Z,6.97
2023-01-11T16:56:05.477Z,8.52
2023-01-11T16:58:37.485Z,6.35
2023-01-11T17:01:09.025Z,6.57
2023-01-11T17:03:49.358Z,6.60
2023-01-11T17:06:18.464Z,7.93
2023-01-11T17:08:52.568Z,7.47
2023-01-11T17:11:26.837Z,8.73
2023-01-11T17:14:29.264Z,7.50
2023-01-11T17:16:59.235Z,8.95
2023-01-11T17:19:31.346Z,9.45
2023-01-11T17:22:14.385Z,9.70
2023-01-11T17:24:43.026Z,10.38
2023-01-11T17:27:19.081Z,13.00
2023-01-11T17:29:47.492Z,11.27
2023-01-11T17:32:19.357Z,11.38
2023-01-11T17:34:46.241Z,11.75
2023-01-11T17:37:16.447Z,10.45
2023-01-11T17:39:46.605Z,10.98
2023-01-11T17:42:33.456Z,11.07
2023-01-11T17:45:14.454Z,9.35
2023-01-11T17:47:49.856Z,9.70
2023-01-11T17:50:22.555Z,10.05
2023-01-11T17:52:57.629Z,18.15
2023-01-11T17:55:25.467Z,14.02
2023-01-11T17:58:17.953Z,10.13
2023-01-11T18:01:07.630Z,11.95
2023-01-11T18:03:51.235Z,14.05
2023-01-11T18:06:37.144Z,8.55
2023-01-11T18:09:05.844Z,9.93
2023-01-11T18:11:38.688Z,10.07
2023-01-11T18:14:17.753Z,11.15
2023-01-11T18:17:03.225Z,8.90
2023-01-11T18:19:32.842Z,8.73
2023-01-11T18:21:59.761Z,9.00
2023-01-11T18:24:43.163Z,12.02
2023-01-11T18:27:17.613Z,9.13
2023-01-11T18:29:44.301Z,7.50
2023-01-11T18:32:12.217Z,7.72
2023-01-11T18:34:39.306Z,9.82
2023-01-11T18:37:09.324Z,7.25
2023-01-11T18:39:36.629Z,7.75
2023-01-11T18:42:10.419Z,6.90
2023-01-11T18:44:45.534Z,9.38
2023-01-11T18:47:22.548Z,12.63
2023-01-11T18:49:50.593Z,9.60
2023-01-11T18:52:19.661Z,9.50
2023-01-11T18:54:46.762Z,9.85
2023-01-11T18:57:13.587Z,8.10
2023-01-11T18:59:40.327Z,8.73
2023-01-11T19:02:16.682Z,8.20
2023-01-11T19:04:44.827Z,7.75
2023-01-11T19:07:12.348Z,10.07
2023-01-11T19:09:39.114Z,7.30
2023-01-11T19:12:06.247Z,8.05
2023-01-11T19:14:33.248Z,7.68
2023-01-11T19:16:59.994Z,10.05
2023-01-11T19:19:26.688Z,7.85
2023-01-11T19:21:53.532Z,7.25
2023-01-11T19:24:20.190Z,7.50
2023-01-11T19:26:46.885Z,8.93
2023-01-11T19:29:17.378Z,7.80
2023-01-11T19:31:47.453Z,6.88
2023-01-11T19:34:14.374Z,8.13
2023-01-11T19:36:41.341Z,6.65
2023-01-11T19:39:08.573Z,6.15
2023-01-11T19:41:54.644Z,7.78
2023-01-11T19:44:22.101Z,9.40
2023-01-11T19:46:57.088Z,6.32
2023-01-11T19:49:31.690Z,6.20
2023-01-11T19:52:00.341Z,6.53
2023-01-11T19:54:28.464Z,6.68
2023-01-11T19:56:55.199Z,7.13
2023-01-11T19:59:22.046Z,9.48
2023-01-11T20:01:49.178Z,8.27
2023-01-11T20:04:16.556Z,9.27
2023-01-11T20:06:53.920Z,8.10
2023-01-11T20:09:22.051Z,8.77
2023-01-11T20:11:49.484Z,8.40
2023-01-11T20:14:17.049Z,7.80
2023-01-11T20:16:43.789Z,9.15
2023-01-11T20:19:10.712Z,7.53
2023-01-11T20:21:37.585Z,7.68
2023-01-11T20:24:05.122Z,8.15
2023-01-11T20:26:33.963Z,8.82
2023-01-11T20:29:01.699Z,8.18
2023-01-11T20:31:31.704Z,7.68
2023-01-11T20:34:00.749Z,8.35
2023-01-11T20:36:28.359Z,7.55
2023-01-11T20:38:56.355Z,10.40
2023-01-11T20:41:44.137Z,9.63
2023-01-11T20:44:11.470Z,8.55
2023-01-11T20:46:38.922Z,10.57
2023-01-11T20:49:06.560Z,7.93
2023-01-11T20:51:33.690Z,8.68
2023-01-11T20:54:00.596Z,8.15
2023-01-11T20:56:28.629Z,9.13
2023-01-11T20:58:55.346Z,8.25
2023-01-11T21:01:28.580Z,7.35
2023-01-11T21:03:58.863Z,9.63
2023-01-11T21:06:25.671Z,8.15
2023-01-11T21:08:56.970Z,8.68
2023-01-11T21:11:24.505Z,8.52
2023-01-11T21:13:55.505Z,7.30
2023-01-11T21:16:28.105Z,7.68
2023-01-11T21:19:01.118Z,5.50
2023-01-11T21:21:30.207Z,7.93
2023-01-11T21:23:58.634Z,7.63
2023-01-11T21:26:26.548Z,6.90
2023-01-11T21:28:55.767Z,6.55
2023-01-11T21:31:22.699Z,6.88
2023-01-11T21:33:50.042Z,6.13
2023-01-11T21:36:20.192Z,5.78
2023-01-11T21:38:46.977Z,7.03
2023-01-11T21:41:16.536Z,6.68
2023-01-11T21:43:43.308Z,7.03
2023-01-11T21:46:10.432Z,5.85
2023-01-11T21:48:37.921Z,6.47
2023-01-11T21:51:08.602Z,5.97
2023-01-11T21:53:35.741Z,5.85
2023-01-11T21:56:07.000Z,6.60
2023-01-11T21:58:34.614Z,6.00
2023-01-11T22:01:10.070Z,5.25
2023-01-11T22:03:37.371Z,6.00
2023-01-11T22:06:04.486Z,5.65
2023-01-11T22:08:34.555Z,5.30
2023-01-11T22:11:02.983Z,5.05
2023-01-11T22:13:32.422Z,5.53
2023-01-11T22:16:11.379Z,5.47
2023-01-11T22:18:38.197Z,4.75
2023-01-11T22:21:10.031Z,5.00
2023-01-11T22:23:36.712Z,4.53
2023-01-11T22:26:09.971Z,4.97
2023-01-11T22:28:55.091Z,4.10
2023-01-11T22:31:21.983Z,3.10
2023-01-11T22:33:48.754Z,5.35
2023-01-11T22:36:16.027Z,6.22
2023-01-11T22:38:42.961Z,3.90
2023-01-11T22:41:10.810Z,4.78
2023-01-11T22:43:37.452Z,4.43
2023-01-11T22:46:07.085Z,4.38
2023-01-11T22:48:33.795Z,4.32
2023-01-11T22:51:04.949Z,4.82
2023-01-11T22:53:38.627Z,4.75
2023-01-11T22:56:05.773Z,3.47
2023-01-11T22:58:32.553Z,4.95
2023-01-11T23:00:59.219Z,4.50
2023-01-11T23:03:27.033Z,4.75
2023-01-11T23:05:53.776Z,5.28
2023-01-11T23:08:20.419Z,4.68
2023-01-11T23:10:47.071Z,4.45
2023-01-11T23:13:32.472Z,4.75
2023-01-11T23:15:59.098Z,4.97
2023-01-11T23:18:25.770Z,3.58
2023-01-11T23:20:52.434Z,3.88
2023-01-11T23:23:19.127Z,3.92
2023-01-11T23:25:45.798Z,4.22
2023-01-11T23:28:12.969Z,3.83
2023-01-11T23:30:39.692Z,4.38
2023-01-11T23:33:07.351Z,3.45
2023-01-11T23:35:34.007Z,4.22
2023-01-11T23:38:00.710Z,4.03
2023-01-11T23:40:27.386Z,3.92
2023-01-11T23:42:54.070Z,4.38
2023-01-11T23:45:20.784Z,4.78
2023-01-11T23:47:49.309Z,4.97
2023-01-11T23:50:16.051Z,4.10
2023-01-11T23:52:42.736Z,5.93
2023-01-11T23:55:09.904Z,6.15
2023-01-11T23:57:36.548Z,3.88
